sensor_id;sensor_type;location;lat;lon;timestamp;pressure;altitude;pressure_sealevel;temperature;humidity
78615;BME280;67937;52.488;20.952;2023-04-25T00:01:56;99348.97;;;10.63;75.19
78615;BME280;67937;52.488;20.952;2023-04-25T00:04:24;99346.27;;;10.58;75.52
78615;BME280;67937;52.488;20.952;2023-04-25T00:06:53;99343.63;;;10.58;75.10
78615;BME280;67937;52.488;20.952;2023-04-25T00:09:22;99337.66;;;10.60;74.88
78615;BME280;67937;52.488;20.952;2023-04-25T00:11:50;99333.11;;;10.57;74.93
78615;BME280;67937;52.488;20.952;2023-04-25T00:14:18;99331.86;;;10.56;74.49
78615;BME280;67937;52.488;20.952;2023-04-25T00:16:46;99333.77;;;10.62;74.88
78615;BME280;67937;52.488;20.952;2023-04-25T00:19:14;99336.57;;;10.58;75.17
78615;BME280;67937;52.488;20.952;2023-04-25T00:21:42;99342.23;;;10.58;75.62
78615;BME280;67937;52.488;20.952;2023-04-25T00:24:12;99341.65;;;10.53;76.01
78615;BME280;67937;52.488;20.952;2023-04-25T00:26:40;99335.92;;;10.48;75.83
78615;BME280;67937;52.488;20.952;2023-04-25T00:29:08;99332.75;;;10.48;76.13
78615;BME280;67937;52.488;20.952;2023-04-25T00:31:36;99336.36;;;10.55;76.42
78615;BME280;67937;52.488;20.952;2023-04-25T00:34:06;99338.91;;;10.50;76.69
78615;BME280;67937;52.488;20.952;2023-04-25T00:36:34;99337.98;;;10.40;76.80
78615;BME280;67937;52.488;20.952;2023-04-25T00:39:02;99334.32;;;10.35;76.26
78615;BME280;67937;52.488;20.952;2023-04-25T00:41:31;99332.06;;;10.45;76.88
78615;BME280;67937;52.488;20.952;2023-04-25T00:44:00;99332.40;;;10.39;77.28
78615;BME280;67937;52.488;20.952;2023-04-25T00:46:30;99336.05;;;10.26;77.45
78615;BME280;67937;52.488;20.952;2023-04-25T00:48:58;99339.42;;;10.20;77.33
78615;BME280;67937;52.488;20.952;2023-04-25T00:51:26;99339.63;;;10.16;76.97
78615;BME280;67937;52.488;20.952;2023-04-25T00:53:54;99338.61;;;10.19;77.03
78615;BME280;67937;52.488;20.952;2023-04-25T00:56:22;99343.50;;;10.14;77.77
78615;BME280;67937;52.488;20.952;2023-04-25T00:58:53;99343.89;;;10.14;77.93
78615;BME280;67937;52.488;20.952;2023-04-25T01:01:23;99338.38;;;10.15;78.55
78615;BME280;67937;52.488;20.952;2023-04-25T01:03:51;99337.38;;;10.16;78.69
78615;BME280;67937;52.488;20.952;2023-04-25T01:06:20;99332.72;;;10.18;78.87
78615;BME280;67937;52.488;20.952;2023-04-25T01:08:48;99339.52;;;10.23;79.26
78615;BME280;67937;52.488;20.952;2023-04-25T01:11:17;99343.97;;;10.15;79.23
78615;BME280;67937;52.488;20.952;2023-04-25T01:13:45;99339.72;;;10.12;79.22
78615;BME280;67937;52.488;20.952;2023-04-25T01:16:13;99338.40;;;10.18;79.45
78615;BME280;67937;52.488;20.952;2023-04-25T01:18:42;99332.16;;;10.07;79.44
78615;BME280;67937;52.488;20.952;2023-04-25T01:21:12;99333.35;;;10.14;79.61
78615;BME280;67937;52.488;20.952;2023-04-25T01:23:42;99340.38;;;10.08;79.73
78615;BME280;67937;52.488;20.952;2023-04-25T01:26:11;99343.09;;;10.04;79.67
78615;BME280;67937;52.488;20.952;2023-04-25T01:28:39;99341.20;;;10.09;80.04
78615;BME280;67937;52.488;20.952;2023-04-25T01:31:09;99342.09;;;9.99;80.21
78615;BME280;67937;52.488;20.952;2023-04-25T01:33:37;99341.42;;;10.00;80.55
78615;BME280;67937;52.488;20.952;2023-04-25T01:36:05;99335.06;;;9.99;80.34
78615;BME280;67937;52.488;20.952;2023-04-25T01:38:33;99329.49;;;10.04;80.10
78615;BME280;67937;52.488;20.952;2023-04-25T01:41:01;99324.90;;;9.98;79.65
78615;BME280;67937;52.488;20.952;2023-04-25T01:43:29;99324.30;;;10.11;79.53
78615;BME280;67937;52.488;20.952;2023-04-25T01:45:58;99328.98;;;10.07;79.75
78615;BME280;67937;52.488;20.952;2023-04-25T01:48:26;99336.89;;;10.04;79.96
78615;BME280;67937;52.488;20.952;2023-04-25T01:50:54;99333.56;;;9.96;80.17
78615;BME280;67937;52.488;20.952;2023-04-25T01:53:22;99335.54;;;9.94;80.25
78615;BME280;67937;52.488;20.952;2023-04-25T01:55:50;99332.04;;;9.92;80.33
78615;BME280;67937;52.488;20.952;2023-04-25T01:58:18;99335.52;;;9.96;80.78
78615;BME280;67937;52.488;20.952;2023-04-25T02:00:46;99338.27;;;9.97;81.05
78615;BME280;67937;52.488;20.952;2023-04-25T02:03:14;99336.63;;;9.94;80.86
78615;BME280;67937;52.488;20.952;2023-04-25T02:05:42;99335.08;;;9.91;80.78
78615;BME280;67937;52.488;20.952;2023-04-25T02:08:10;99330.02;;;9.93;81.14
78615;BME280;67937;52.488;20.952;2023-04-25T02:10:38;99331.98;;;9.92;80.94
78615;BME280;67937;52.488;20.952;2023-04-25T02:13:06;99335.70;;;9.96;81.21
78615;BME280;67937;52.488;20.952;2023-04-25T02:15:34;99330.69;;;9.93;81.53
78615;BME280;67937;52.488;20.952;2023-04-25T02:18:02;99328.48;;;9.88;81.74
78615;BME280;67937;52.488;20.952;2023-04-25T02:20:30;99328.49;;;9.92;81.48
78615;BME280;67937;52.488;20.952;2023-04-25T02:22:58;99330.09;;;9.94;82.00
78615;BME280;67937;52.488;20.952;2023-04-25T02:25:26;99328.20;;;9.89;81.93
78615;BME280;67937;52.488;20.952;2023-04-25T02:27:54;99324.71;;;9.89;82.27
78615;BME280;67937;52.488;20.952;2023-04-25T02:30:22;99319.33;;;9.88;82.18
78615;BME280;67937;52.488;20.952;2023-04-25T02:32:50;99322.95;;;9.86;82.15
78615;BME280;67937;52.488;20.952;2023-04-25T02:35:18;99326.13;;;9.83;82.29
78615;BME280;67937;52.488;20.952;2023-04-25T02:37:46;99323.55;;;9.84;82.07
78615;BME280;67937;52.488;20.952;2023-04-25T02:40:14;99323.78;;;9.86;82.47
78615;BME280;67937;52.488;20.952;2023-04-25T02:42:42;99321.06;;;9.87;82.56
78615;BME280;67937;52.488;20.952;2023-04-25T02:45:12;99320.85;;;9.94;82.62
78615;BME280;67937;52.488;20.952;2023-04-25T02:47:40;99318.80;;;9.96;82.48
78615;BME280;67937;52.488;20.952;2023-04-25T02:50:08;99319.85;;;9.94;82.83
78615;BME280;67937;52.488;20.952;2023-04-25T02:52:36;99319.02;;;9.93;82.82
78615;BME280;67937;52.488;20.952;2023-04-25T02:55:04;99317.27;;;9.88;82.55
78615;BME280;67937;52.488;20.952;2023-04-25T02:57:32;99315.09;;;9.88;82.19
78615;BME280;67937;52.488;20.952;2023-04-25T03:00:00;99312.39;;;9.93;81.76
78615;BME280;67937;52.488;20.952;2023-04-25T03:02:28;99311.36;;;9.98;81.37
78615;BME280;67937;52.488;20.952;2023-04-25T03:04:56;99308.63;;;10.09;81.22
78615;BME280;67937;52.488;20.952;2023-04-25T03:07:24;99308.88;;;10.11;82.23
78615;BME280;67937;52.488;20.952;2023-04-25T03:09:52;99308.80;;;10.05;82.58
78615;BME280;67937;52.488;20.952;2023-04-25T03:12:22;99308.11;;;10.04;83.28
78615;BME280;67937;52.488;20.952;2023-04-25T03:14:50;99308.42;;;10.01;83.51
78615;BME280;67937;52.488;20.952;2023-04-25T03:17:18;99310.14;;;10.02;83.59
78615;BME280;67937;52.488;20.952;2023-04-25T03:19:46;99309.12;;;10.01;83.62
78615;BME280;67937;52.488;20.952;2023-04-25T03:22:14;99309.70;;;10.03;84.11
78615;BME280;67937;52.488;20.952;2023-04-25T03:24:42;99309.06;;;10.04;84.21
78615;BME280;67937;52.488;20.952;2023-04-25T03:27:10;99305.85;;;10.08;84.25
78615;BME280;67937;52.488;20.952;2023-04-25T03:29:38;99306.43;;;10.11;84.15
78615;BME280;67937;52.488;20.952;2023-04-25T03:32:06;99304.09;;;10.10;84.46
78615;BME280;67937;52.488;20.952;2023-04-25T03:34:34;99308.00;;;10.10;84.83
78615;BME280;67937;52.488;20.952;2023-04-25T03:37:02;99309.66;;;10.11;84.92
78615;BME280;67937;52.488;20.952;2023-04-25T03:39:30;99312.66;;;10.18;84.92
78615;BME280;67937;52.488;20.952;2023-04-25T03:41:58;99317.48;;;10.17;84.90
78615;BME280;67937;52.488;20.952;2023-04-25T03:44:26;99318.41;;;10.17;84.77
78615;BME280;67937;52.488;20.952;2023-04-25T03:46:54;99327.29;;;10.22;84.80
78615;BME280;67937;52.488;20.952;2023-04-25T03:49:22;99328.67;;;10.26;84.82
78615;BME280;67937;52.488;20.952;2023-04-25T03:51:50;99330.07;;;10.22;85.03
78615;BME280;67937;52.488;20.952;2023-04-25T03:54:18;99330.55;;;10.26;84.77
78615;BME280;67937;52.488;20.952;2023-04-25T03:56:46;99333.09;;;10.34;85.03
78615;BME280;67937;52.488;20.952;2023-04-25T03:59:14;99329.90;;;10.36;85.12
78615;BME280;67937;52.488;20.952;2023-04-25T04:01:42;99335.50;;;10.42;84.97
78615;BME280;67937;52.488;20.952;2023-04-25T04:04:10;99335.18;;;10.43;85.09
78615;BME280;67937;52.488;20.952;2023-04-25T04:06:39;99338.83;;;10.50;84.97
78615;BME280;67937;52.488;20.952;2023-04-25T04:09:06;99340.59;;;10.53;84.99
78615;BME280;67937;52.488;20.952;2023-04-25T04:11:37;99344.86;;;10.64;85.00
78615;BME280;67937;52.488;20.952;2023-04-25T04:14:06;99344.30;;;10.58;85.13
78615;BME280;67937;52.488;20.952;2023-04-25T04:16:34;99345.02;;;10.60;84.95
78615;BME280;67937;52.488;20.952;2023-04-25T04:19:02;99348.75;;;10.60;84.72
78615;BME280;67937;52.488;20.952;2023-04-25T04:21:30;99351.27;;;10.72;84.60
78615;BME280;67937;52.488;20.952;2023-04-25T04:23:59;99356.45;;;10.73;84.60
78615;BME280;67937;52.488;20.952;2023-04-25T04:26:28;99357.08;;;10.78;84.65
78615;BME280;67937;52.488;20.952;2023-04-25T04:28:58;99358.73;;;10.79;84.81
78615;BME280;67937;52.488;20.952;2023-04-25T04:31:26;99361.73;;;10.77;84.83
78615;BME280;67937;52.488;20.952;2023-04-25T04:33:54;99363.64;;;10.74;84.94
78615;BME280;67937;52.488;20.952;2023-04-25T04:36:22;99360.91;;;10.78;84.86
78615;BME280;67937;52.488;20.952;2023-04-25T04:38:52;99363.63;;;10.83;84.77
78615;BME280;67937;52.488;20.952;2023-04-25T04:41:20;99367.45;;;10.85;84.70
78615;BME280;67937;52.488;20.952;2023-04-25T04:43:48;99370.04;;;10.90;84.58
78615;BME280;67937;52.488;20.952;2023-04-25T04:46:16;99365.70;;;10.91;84.61
78615;BME280;67937;52.488;20.952;2023-04-25T04:48:44;99361.80;;;10.89;84.62
78615;BME280;67937;52.488;20.952;2023-04-25T04:51:12;99363.48;;;10.93;84.60
78615;BME280;67937;52.488;20.952;2023-04-25T04:53:40;99364.84;;;10.94;84.47
78615;BME280;67937;52.488;20.952;2023-04-25T04:56:08;99369.54;;;11.02;84.44
78615;BME280;67937;52.488;20.952;2023-04-25T04:58:36;99370.73;;;11.04;84.63
78615;BME280;67937;52.488;20.952;2023-04-25T05:01:04;99372.90;;;11.07;84.41
78615;BME280;67937;52.488;20.952;2023-04-25T05:03:32;99370.89;;;11.06;84.38
78615;BME280;67937;52.488;20.952;2023-04-25T05:06:00;99373.23;;;11.11;84.21
78615;BME280;67937;52.488;20.952;2023-04-25T05:08:28;99375.67;;;11.12;83.89
78615;BME280;67937;52.488;20.952;2023-04-25T05:10:56;99370.41;;;11.11;83.89
78615;BME280;67937;52.488;20.952;2023-04-25T05:13:24;99371.14;;;11.15;83.63
78615;BME280;67937;52.488;20.952;2023-04-25T05:15:52;99377.36;;;11.14;83.76
78615;BME280;67937;52.488;20.952;2023-04-25T05:18:20;99375.11;;;11.14;83.96
78615;BME280;67937;52.488;20.952;2023-04-25T05:20:48;99374.11;;;11.09;83.79
78615;BME280;67937;52.488;20.952;2023-04-25T05:23:16;99367.44;;;11.09;83.75
78615;BME280;67937;52.488;20.952;2023-04-25T05:25:44;99363.23;;;11.12;83.78
78615;BME280;67937;52.488;20.952;2023-04-25T05:28:12;99363.20;;;11.18;83.65
78615;BME280;67937;52.488;20.952;2023-04-25T05:30:41;99363.42;;;11.11;83.68
78615;BME280;67937;52.488;20.952;2023-04-25T05:33:09;99367.94;;;11.09;83.49
78615;BME280;67937;52.488;20.952;2023-04-25T05:35:37;99374.58;;;11.10;83.65
78615;BME280;67937;52.488;20.952;2023-04-25T05:38:05;99379.14;;;11.14;83.49
78615;BME280;67937;52.488;20.952;2023-04-25T05:40:33;99382.58;;;11.13;83.54
78615;BME280;67937;52.488;20.952;2023-04-25T05:43:01;99384.17;;;11.08;83.52
78615;BME280;67937;52.488;20.952;2023-04-25T05:45:29;99386.00;;;11.05;83.58
78615;BME280;67937;52.488;20.952;2023-04-25T05:47:57;99390.48;;;11.05;83.54
78615;BME280;67937;52.488;20.952;2023-04-25T05:50:25;99389.58;;;11.05;83.17
78615;BME280;67937;52.488;20.952;2023-04-25T05:52:53;99393.80;;;10.98;83.24
78615;BME280;67937;52.488;20.952;2023-04-25T05:55:20;99392.34;;;10.98;83.17
78615;BME280;67937;52.488;20.952;2023-04-25T05:57:48;99397.04;;;11.00;83.21
78615;BME280;67937;52.488;20.952;2023-04-25T06:00:16;99394.35;;;10.99;83.18
78615;BME280;67937;52.488;20.952;2023-04-25T06:02:45;99401.11;;;10.95;83.32
78615;BME280;67937;52.488;20.952;2023-04-25T06:05:13;99404.48;;;10.97;83.37
78615;BME280;67937;52.488;20.952;2023-04-25T06:07:41;99401.58;;;11.00;83.35
78615;BME280;67937;52.488;20.952;2023-04-25T06:10:10;99405.54;;;10.89;83.39
78615;BME280;67937;52.488;20.952;2023-04-25T06:12:38;99411.31;;;10.99;83.11
78615;BME280;67937;52.488;20.952;2023-04-25T06:15:06;99414.38;;;10.86;83.40
78615;BME280;67937;52.488;20.952;2023-04-25T06:17:34;99416.80;;;10.81;83.70
78615;BME280;67937;52.488;20.952;2023-04-25T06:20:02;99420.63;;;10.83;83.37
78615;BME280;67937;52.488;20.952;2023-04-25T06:22:32;99426.98;;;10.78;83.34
78615;BME280;67937;52.488;20.952;2023-04-25T06:25:00;99421.99;;;10.72;83.39
78615;BME280;67937;52.488;20.952;2023-04-25T06:27:30;99420.48;;;10.77;83.14
78615;BME280;67937;52.488;20.952;2023-04-25T06:29:58;99422.84;;;10.75;83.20
78615;BME280;67937;52.488;20.952;2023-04-25T06:32:26;99421.36;;;10.74;83.32
78615;BME280;67937;52.488;20.952;2023-04-25T06:34:56;99422.65;;;10.69;83.57
78615;BME280;67937;52.488;20.952;2023-04-25T06:37:24;99420.63;;;10.70;83.70
78615;BME280;67937;52.488;20.952;2023-04-25T06:39:52;99425.55;;;10.72;83.72
78615;BME280;67937;52.488;20.952;2023-04-25T06:42:20;99426.73;;;10.67;83.66
78615;BME280;67937;52.488;20.952;2023-04-25T06:44:48;99426.70;;;10.68;83.65
78615;BME280;67937;52.488;20.952;2023-04-25T06:47:16;99430.27;;;10.69;83.51
78615;BME280;67937;52.488;20.952;2023-04-25T06:49:44;99440.47;;;10.73;83.67
78615;BME280;67937;52.488;20.952;2023-04-25T06:52:12;99441.34;;;10.73;82.88
78615;BME280;67937;52.488;20.952;2023-04-25T06:54:40;99442.86;;;10.63;82.49
78615;BME280;67937;52.488;20.952;2023-04-25T06:57:08;99446.73;;;10.52;82.95
78615;BME280;67937;52.488;20.952;2023-04-25T06:59:36;99450.73;;;10.43;83.09
78615;BME280;67937;52.488;20.952;2023-04-25T07:02:04;99448.67;;;10.28;83.39
78615;BME280;67937;52.488;20.952;2023-04-25T07:04:32;99451.05;;;10.39;83.45
78615;BME280;67937;52.488;20.952;2023-04-25T07:07:00;99448.38;;;10.41;83.26
78615;BME280;67937;52.488;20.952;2023-04-25T07:09:29;99451.29;;;10.41;83.18
78615;BME280;67937;52.488;20.952;2023-04-25T07:12:00;99454.88;;;10.44;83.51
78615;BME280;67937;52.488;20.952;2023-04-25T07:14:29;99466.89;;;10.45;83.62
78615;BME280;67937;52.488;20.952;2023-04-25T07:16:56;99473.34;;;10.43;83.80
78615;BME280;67937;52.488;20.952;2023-04-25T07:19:25;99487.66;;;10.51;83.63
78615;BME280;67937;52.488;20.952;2023-04-25T07:21:53;99490.60;;;10.46;84.07
78615;BME280;67937;52.488;20.952;2023-04-25T07:24:21;99496.56;;;10.33;83.72
78615;BME280;67937;52.488;20.952;2023-04-25T07:26:49;99490.43;;;10.23;83.98
78615;BME280;67937;52.488;20.952;2023-04-25T07:29:17;99487.06;;;10.19;84.04
78615;BME280;67937;52.488;20.952;2023-04-25T07:31:45;99483.97;;;10.17;84.37
78615;BME280;67937;52.488;20.952;2023-04-25T07:34:13;99482.35;;;10.17;84.62
78615;BME280;67937;52.488;20.952;2023-04-25T07:36:41;99479.97;;;10.28;84.69
78615;BME280;67937;52.488;20.952;2023-04-25T07:39:09;99482.11;;;10.31;84.44
78615;BME280;67937;52.488;20.952;2023-04-25T07:41:37;99479.28;;;10.39;84.15
78615;BME280;67937;52.488;20.952;2023-04-25T07:44:05;99475.09;;;10.43;83.89
78615;BME280;67937;52.488;20.952;2023-04-25T07:46:33;99460.98;;;10.50;83.58
78615;BME280;67937;52.488;20.952;2023-04-25T07:49:01;99455.60;;;10.59;83.23
78615;BME280;67937;52.488;20.952;2023-04-25T07:51:29;99455.74;;;10.64;82.77
78615;BME280;67937;52.488;20.952;2023-04-25T07:53:58;99458.73;;;10.70;82.60
78615;BME280;67937;52.488;20.952;2023-04-25T07:56:26;99464.41;;;10.70;83.12
78615;BME280;67937;52.488;20.952;2023-04-25T07:58:54;99462.72;;;10.67;83.23
78615;BME280;67937;52.488;20.952;2023-04-25T08:01:22;99460.66;;;10.76;83.19
78615;BME280;67937;52.488;20.952;2023-04-25T08:03:49;99466.55;;;10.83;83.32
78615;BME280;67937;52.488;20.952;2023-04-25T08:06:17;99467.92;;;11.01;83.05
78615;BME280;67937;52.488;20.952;2023-04-25T08:08:45;99469.99;;;11.00;83.00
78615;BME280;67937;52.488;20.952;2023-04-25T08:11:13;99471.34;;;11.12;83.11
78615;BME280;67937;52.488;20.952;2023-04-25T08:13:42;99473.58;;;11.43;81.59
78615;BME280;67937;52.488;20.952;2023-04-25T08:16:10;99470.05;;;11.50;81.90
78615;BME280;67937;52.488;20.952;2023-04-25T08:18:38;99473.14;;;11.72;81.95
78615;BME280;67937;52.488;20.952;2023-04-25T08:21:06;99473.02;;;11.80;81.57
78615;BME280;67937;52.488;20.952;2023-04-25T08:23:35;99476.21;;;11.82;79.36
78615;BME280;67937;52.488;20.952;2023-04-25T08:26:03;99474.38;;;11.64;78.65
78615;BME280;67937;52.488;20.952;2023-04-25T08:28:31;99470.03;;;11.54;79.33
78615;BME280;67937;52.488;20.952;2023-04-25T08:30:59;99471.52;;;11.55;78.90
78615;BME280;67937;52.488;20.952;2023-04-25T08:33:27;99474.36;;;11.48;78.73
78615;BME280;67937;52.488;20.952;2023-04-25T08:35:57;99476.48;;;11.53;77.76
78615;BME280;67937;52.488;20.952;2023-04-25T08:38:25;99484.50;;;11.33;78.82
78615;BME280;67937;52.488;20.952;2023-04-25T08:40:53;99483.89;;;11.30;78.75
78615;BME280;67937;52.488;20.952;2023-04-25T08:43:23;99484.27;;;11.13;78.91
78615;BME280;67937;52.488;20.952;2023-04-25T08:45:52;99484.93;;;10.97;79.42
78615;BME280;67937;52.488;20.952;2023-04-25T08:48:21;99485.90;;;10.89;79.13
78615;BME280;67937;52.488;20.952;2023-04-25T08:50:55;99487.98;;;10.80;79.37
78615;BME280;67937;52.488;20.952;2023-04-25T08:53:29;99490.58;;;10.75;79.26
78615;BME280;67937;52.488;20.952;2023-04-25T08:55:59;99497.64;;;10.69;79.75
78615;BME280;67937;52.488;20.952;2023-04-25T08:58:28;99505.84;;;10.77;79.57
78615;BME280;67937;52.488;20.952;2023-04-25T09:00:56;99509.09;;;10.92;78.86
78615;BME280;67937;52.488;20.952;2023-04-25T09:03:24;99508.55;;;11.03;79.09
78615;BME280;67937;52.488;20.952;2023-04-25T09:05:53;99513.52;;;11.14;78.67
78615;BME280;67937;52.488;20.952;2023-04-25T09:08:22;99509.78;;;11.27;78.72
78615;BME280;67937;52.488;20.952;2023-04-25T09:10:50;99514.94;;;11.36;78.65
78615;BME280;67937;52.488;20.952;2023-04-25T09:13:25;99510.20;;;11.55;78.48
78615;BME280;67937;52.488;20.952;2023-04-25T09:15:56;99511.06;;;11.46;77.55
78615;BME280;67937;52.488;20.952;2023-04-25T09:18:27;99515.08;;;11.49;77.58
78615;BME280;67937;52.488;20.952;2023-04-25T09:21:04;99520.50;;;11.46;75.86
78615;BME280;67937;52.488;20.952;2023-04-25T09:23:48;99526.23;;;11.28;76.66
78615;BME280;67937;52.488;20.952;2023-04-25T09:26:20;99523.55;;;11.21;77.17
78615;BME280;67937;52.488;20.952;2023-04-25T09:28:48;99521.09;;;11.31;77.29
78615;BME280;67937;52.488;20.952;2023-04-25T09:31:23;99522.16;;;11.41;76.95
78615;BME280;67937;52.488;20.952;2023-04-25T09:34:01;99525.00;;;11.50;75.89
78615;BME280;67937;52.488;20.952;2023-04-25T09:36:30;99525.17;;;11.49;75.87
78615;BME280;67937;52.488;20.952;2023-04-25T09:38:59;99530.54;;;11.37;75.88
78615;BME280;67937;52.488;20.952;2023-04-25T09:41:27;99531.33;;;11.29;76.11
78615;BME280;67937;52.488;20.952;2023-04-25T09:43:58;99531.17;;;11.43;75.63
78615;BME280;67937;52.488;20.952;2023-04-25T09:46:33;99530.89;;;11.39;75.53
78615;BME280;67937;52.488;20.952;2023-04-25T09:49:06;99529.04;;;11.38;76.01
78615;BME280;67937;52.488;20.952;2023-04-25T09:51:35;99528.59;;;11.48;75.95
78615;BME280;67937;52.488;20.952;2023-04-25T09:54:03;99533.05;;;11.46;75.03
78615;BME280;67937;52.488;20.952;2023-04-25T09:56:35;99536.81;;;11.38;74.88
78615;BME280;67937;52.488;20.952;2023-04-25T09:59:05;99540.58;;;11.39;74.39
78615;BME280;67937;52.488;20.952;2023-04-25T10:01:34;99544.79;;;11.27;74.56
78615;BME280;67937;52.488;20.952;2023-04-25T10:04:05;99541.84;;;11.22;74.70
78615;BME280;67937;52.488;20.952;2023-04-25T10:06:36;99545.32;;;11.17;73.82
78615;BME280;67937;52.488;20.952;2023-04-25T10:09:06;99544.56;;;11.16;73.85
78615;BME280;67937;52.488;20.952;2023-04-25T10:11:35;99548.23;;;11.13;73.61
78615;BME280;67937;52.488;20.952;2023-04-25T10:14:04;99554.77;;;11.02;73.88
78615;BME280;67937;52.488;20.952;2023-04-25T10:16:33;99554.97;;;10.96;74.38
78615;BME280;67937;52.488;20.952;2023-04-25T10:19:02;99554.16;;;11.08;74.15
78615;BME280;67937;52.488;20.952;2023-04-25T10:21:31;99555.38;;;11.01;74.14
78615;BME280;67937;52.488;20.952;2023-04-25T10:24:00;99559.42;;;11.03;74.38
78615;BME280;67937;52.488;20.952;2023-04-25T10:26:28;99564.71;;;10.94;75.11
78615;BME280;67937;52.488;20.952;2023-04-25T10:28:58;99564.35;;;11.10;75.31
78615;BME280;67937;52.488;20.952;2023-04-25T10:31:29;99569.02;;;10.98;75.71
78615;BME280;67937;52.488;20.952;2023-04-25T10:33:59;99570.70;;;10.90;76.48
78615;BME280;67937;52.488;20.952;2023-04-25T10:36:31;99577.05;;;10.84;76.54
78615;BME280;67937;52.488;20.952;2023-04-25T10:39:04;99581.52;;;10.72;76.99
78615;BME280;67937;52.488;20.952;2023-04-25T10:41:52;99578.54;;;10.61;77.87
78615;BME280;67937;52.488;20.952;2023-04-25T10:44:21;99575.84;;;10.50;78.36
78615;BME280;67937;52.488;20.952;2023-04-25T10:46:49;99574.98;;;10.46;78.64
78615;BME280;67937;52.488;20.952;2023-04-25T10:49:31;99574.95;;;10.53;78.81
78615;BME280;67937;52.488;20.952;2023-04-25T10:52:15;99578.30;;;10.58;79.03
78615;BME280;67937;52.488;20.952;2023-04-25T10:57:37;99571.63;;;10.67;78.69
78615;BME280;67937;52.488;20.952;2023-04-25T11:02:51;99577.67;;;10.62;78.92
78615;BME280;67937;52.488;20.952;2023-04-25T11:07:57;99575.54;;;10.61;78.32
78615;BME280;67937;52.488;20.952;2023-04-25T11:10:27;99574.40;;;10.58;78.57
78615;BME280;67937;52.488;20.952;2023-04-25T11:12:55;99574.37;;;10.58;78.55
78615;BME280;67937;52.488;20.952;2023-04-25T11:15:24;99578.10;;;10.54;78.61
78615;BME280;67937;52.488;20.952;2023-04-25T11:17:53;99578.02;;;10.61;78.64
78615;BME280;67937;52.488;20.952;2023-04-25T11:20:21;99576.14;;;10.62;78.29
78615;BME280;67937;52.488;20.952;2023-04-25T11:22:52;99577.20;;;10.58;78.20
78615;BME280;67937;52.488;20.952;2023-04-25T11:25:20;99578.19;;;10.55;78.11
78615;BME280;67937;52.488;20.952;2023-04-25T11:27:57;99581.67;;;10.50;78.21
78615;BME280;67937;52.488;20.952;2023-04-25T11:30:28;99581.96;;;10.58;78.33
78615;BME280;67937;52.488;20.952;2023-04-25T11:32:57;99586.76;;;10.63;77.91
78615;BME280;67937;52.488;20.952;2023-04-25T11:35:25;99587.63;;;10.71;78.03
78615;BME280;67937;52.488;20.952;2023-04-25T11:37:53;99588.74;;;10.78;76.93
78615;BME280;67937;52.488;20.952;2023-04-25T11:40:21;99585.95;;;10.76;76.10
78615;BME280;67937;52.488;20.952;2023-04-25T11:42:49;99583.38;;;10.73;75.96
78615;BME280;67937;52.488;20.952;2023-04-25T11:45:17;99583.45;;;10.80;76.02
78615;BME280;67937;52.488;20.952;2023-04-25T11:47:46;99581.62;;;10.88;75.63
78615;BME280;67937;52.488;20.952;2023-04-25T11:50:14;99582.77;;;10.85;75.63
78615;BME280;67937;52.488;20.952;2023-04-25T11:52:44;99584.23;;;10.96;74.03
78615;BME280;67937;52.488;20.952;2023-04-25T11:55:17;99582.69;;;10.94;74.24
78615;BME280;67937;52.488;20.952;2023-04-25T11:57:49;99581.62;;;10.96;73.77
78615;BME280;67937;52.488;20.952;2023-04-25T12:00:20;99578.16;;;10.93;74.25
78615;BME280;67937;52.488;20.952;2023-04-25T12:02:54;99577.73;;;11.01;74.41
78615;BME280;67937;52.488;20.952;2023-04-25T12:05:26;99578.98;;;11.07;73.18
78615;BME280;67937;52.488;20.952;2023-04-25T12:07:55;99575.92;;;11.06;72.94
78615;BME280;67937;52.488;20.952;2023-04-25T12:10:24;99572.23;;;11.16;72.47
78615;BME280;67937;52.488;20.952;2023-04-25T12:12:53;99574.27;;;11.17;72.76
78615;BME280;67937;52.488;20.952;2023-04-25T12:15:25;99571.65;;;11.19;73.12
78615;BME280;67937;52.488;20.952;2023-04-25T12:17:53;99570.22;;;11.21;73.36
78615;BME280;67937;52.488;20.952;2023-04-25T12:20:24;99573.61;;;11.26;72.63
78615;BME280;67937;52.488;20.952;2023-04-25T12:22:53;99573.33;;;11.22;72.87
78615;BME280;67937;52.488;20.952;2023-04-25T12:25:41;99573.25;;;11.26;73.03
78615;BME280;67937;52.488;20.952;2023-04-25T12:31:01;99572.80;;;11.20;72.27
78615;BME280;67937;52.488;20.952;2023-04-25T12:33:31;99569.38;;;11.04;72.86
78615;BME280;67937;52.488;20.952;2023-04-25T12:36:00;99566.27;;;11.07;72.83
78615;BME280;67937;52.488;20.952;2023-04-25T12:38:31;99569.56;;;11.04;73.02
78615;BME280;67937;52.488;20.952;2023-04-25T12:41:00;99567.66;;;11.11;72.22
78615;BME280;67937;52.488;20.952;2023-04-25T12:43:28;99566.48;;;11.01;71.84
78615;BME280;67937;52.488;20.952;2023-04-25T12:45:57;99566.29;;;10.95;72.17
78615;BME280;67937;52.488;20.952;2023-04-25T12:48:24;99570.08;;;11.02;71.43
78615;BME280;67937;52.488;20.952;2023-04-25T12:50:52;99567.81;;;11.05;70.82
78615;BME280;67937;52.488;20.952;2023-04-25T12:53:22;99567.52;;;10.93;71.14
78615;BME280;67937;52.488;20.952;2023-04-25T12:55:51;99569.91;;;10.98;70.55
78615;BME280;67937;52.488;20.952;2023-04-25T12:58:19;99569.69;;;10.97;70.25
78615;BME280;67937;52.488;20.952;2023-04-25T13:00:47;99569.36;;;11.02;68.95
78615;BME280;67937;52.488;20.952;2023-04-25T13:03:15;99571.71;;;10.90;69.28
78615;BME280;67937;52.488;20.952;2023-04-25T13:05:44;99565.08;;;10.88;69.72
78615;BME280;67937;52.488;20.952;2023-04-25T13:08:12;99567.05;;;10.89;69.16
78615;BME280;67937;52.488;20.952;2023-04-25T13:10:40;99568.58;;;10.86;69.16